sensor_id;sensor_type;location;lat;lon;timestamp;pressure;altitude;pressure_sealevel;temperature;humidity
21011;BME280;10663;42.714;23.274;2023-06-04T00:00:15;94911.28;;;21.17;63.14
21011;BME280;10663;42.714;23.274;2023-06-04T00:01:46;94900.16;;;21.27;62.75
21011;BME280;10663;42.714;23.274;2023-06-04T00:03:17;94899.38;;;21.26;62.79
21011;BME280;10663;42.714;23.274;2023-06-04T00:04:48;94904.59;;;21.23;62.99
21011;BME280;10663;42.714;23.274;2023-06-04T00:06:18;94909.50;;;21.30;62.76
21011;BME280;10663;42.714;23.274;2023-06-04T00:07:50;94908.41;;;21.22;62.38
21011;BME280;10663;42.714;23.274;2023-06-04T00:09:21;94895.44;;;21.15;62.64
21011;BME280;10663;42.714;23.274;2023-06-04T00:10:52;94899.44;;;21.09;62.58
21011;BME280;10663;42.714;23.274;2023-06-04T00:12:22;94900.88;;;21.07;62.80
21011;BME280;10663;42.714;23.274;2023-06-04T00:13:53;94896.97;;;20.96;63.36
21011;BME280;10663;42.714;23.274;2023-06-04T00:15:24;94900.66;;;20.91;63.82
21011;BME280;10663;42.714;23.274;2023-06-04T00:16:55;94902.28;;;20.83;63.69
21011;BME280;10663;42.714;23.274;2023-06-04T00:18:26;94900.53;;;20.79;63.84
21011;BME280;10663;42.714;23.274;2023-06-04T00:19:57;94900.06;;;20.77;63.54
21011;BME280;10663;42.714;23.274;2023-06-04T00:21:28;94899.63;;;20.75;63.56
21011;BME280;10663;42.714;23.274;2023-06-04T00:22:59;94897.53;;;20.80;63.76
21011;BME280;10663;42.714;23.274;2023-06-04T00:24:30;94895.03;;;20.75;63.38
21011;BME280;10663;42.714;23.274;2023-06-04T00:26:03;94895.94;;;20.79;63.58
21011;BME280;10663;42.714;23.274;2023-06-04T00:27:34;94902.44;;;20.78;63.53
21011;BME280;10663;42.714;23.274;2023-06-04T00:29:05;94896.03;;;20.62;64.08
21011;BME280;10663;42.714;23.274;2023-06-04T00:30:36;94900.09;;;20.68;63.68
21011;BME280;10663;42.714;23.274;2023-06-04T00:32:07;94898.47;;;20.46;64.36
21011;BME280;10663;42.714;23.274;2023-06-04T00:33:39;94899.53;;;20.54;64.32
21011;BME280;10663;42.714;23.274;2023-06-04T00:35:10;94889.50;;;20.72;63.75
21011;BME280;10663;42.714;23.274;2023-06-04T00:36:40;94895.03;;;20.75;63.74
21011;BME280;10663;42.714;23.274;2023-06-04T00:38:11;94890.34;;;20.55;63.98
21011;BME280;10663;42.714;23.274;2023-06-04T00:39:42;94897.16;;;20.52;64.01
21011;BME280;10663;42.714;23.274;2023-06-04T00:41:13;94897.59;;;20.63;63.90
21011;BME280;10663;42.714;23.274;2023-06-04T00:42:44;94899.50;;;20.63;63.73
21011;BME280;10663;42.714;23.274;2023-06-04T00:44:15;94899.00;;;20.69;63.62
21011;BME280;10663;42.714;23.274;2023-06-04T00:45:47;94896.81;;;20.63;63.74
21011;BME280;10663;42.714;23.274;2023-06-04T00:47:19;94893.97;;;20.59;64.22
21011;BME280;10663;42.714;23.274;2023-06-04T00:48:51;94885.56;;;20.61;64.09
21011;BME280;10663;42.714;23.274;2023-06-04T00:50:22;94893.84;;;20.56;64.16
21011;BME280;10663;42.714;23.274;2023-06-04T00:51:54;94895.50;;;20.69;63.79
21011;BME280;10663;42.714;23.274;2023-06-04T00:53:25;94889.34;;;20.68;63.91
21011;BME280;10663;42.714;23.274;2023-06-04T00:54:57;94888.53;;;20.68;64.16
21011;BME280;10663;42.714;23.274;2023-06-04T00:56:28;94889.78;;;20.79;63.68
21011;BME280;10663;42.714;23.274;2023-06-04T00:57:59;94885.97;;;20.80;63.95
21011;BME280;10663;42.714;23.274;2023-06-04T00:59:32;94888.16;;;20.86;64.10
21011;BME280;10663;42.714;23.274;2023-06-04T01:01:04;94884.19;;;20.92;64.24
21011;BME280;10663;42.714;23.274;2023-06-04T01:02:39;94883.88;;;20.85;64.33
21011;BME280;10663;42.714;23.274;2023-06-04T01:04:20;94886.97;;;20.75;64.62
21011;BME280;10663;42.714;23.274;2023-06-04T01:06:10;94877.47;;;20.69;64.95
21011;BME280;10663;42.714;23.274;2023-06-04T01:07:44;94885.13;;;20.50;65.53
21011;BME280;10663;42.714;23.274;2023-06-04T01:09:18;94888.31;;;20.52;65.59
21011;BME280;10663;42.714;23.274;2023-06-04T01:10:53;94882.28;;;20.55;65.29
21011;BME280;10663;42.714;23.274;2023-06-04T01:12:24;94890.91;;;20.69;65.13
21011;BME280;10663;42.714;23.274;2023-06-04T01:13:55;94883.91;;;20.77;64.20
21011;BME280;10663;42.714;23.274;2023-06-04T01:15:26;94885.13;;;20.88;64.04
21011;BME280;10663;42.714;23.274;2023-06-04T01:17:15;94886.53;;;20.94;63.59
21011;BME280;10663;42.714;23.274;2023-06-04T01:18:48;94885.94;;;20.88;63.53
21011;BME280;10663;42.714;23.274;2023-06-04T01:20:23;94888.63;;;20.88;63.60
21011;BME280;10663;42.714;23.274;2023-06-04T01:22:03;94889.41;;;20.89;63.47
21011;BME280;10663;42.714;23.274;2023-06-04T01:23:46;94881.66;;;20.87;63.53
21011;BME280;10663;42.714;23.274;2023-06-04T01:25:24;94885.59;;;20.90;63.63
21011;BME280;10663;42.714;23.274;2023-06-04T01:26:57;94885.28;;;20.91;63.74
21011;BME280;10663;42.714;23.274;2023-06-04T01:28:29;94879.34;;;21.07;62.83
21011;BME280;10663;42.714;23.274;2023-06-04T01:30:00;94883.97;;;20.98;62.44
21011;BME280;10663;42.714;23.274;2023-06-04T01:31:31;94884.66;;;21.15;61.79
21011;BME280;10663;42.714;23.274;2023-06-04T01:33:03;94887.72;;;21.05;62.32
21011;BME280;10663;42.714;23.274;2023-06-04T01:34:46;94893.78;;;21.02;62.51
21011;BME280;10663;42.714;23.274;2023-06-04T01:36:16;94887.69;;;21.14;62.57
21011;BME280;10663;42.714;23.274;2023-06-04T01:37:49;94897.66;;;21.13;61.98
21011;BME280;10663;42.714;23.274;2023-06-04T01:39:22;94891.03;;;21.11;62.33
21011;BME280;10663;42.714;23.274;2023-06-04T01:40:53;94893.13;;;21.05;62.21
21011;BME280;10663;42.714;23.274;2023-06-04T01:42:31;94892.16;;;21.10;62.02
21011;BME280;10663;42.714;23.274;2023-06-04T01:44:02;94905.34;;;21.03;61.97
21011;BME280;10663;42.714;23.274;2023-06-04T01:45:33;94892.78;;;21.07;61.88
21011;BME280;10663;42.714;23.274;2023-06-04T01:47:04;94903.97;;;20.88;62.37
21011;BME280;10663;42.714;23.274;2023-06-04T01:48:35;94901.25;;;20.97;62.12
21011;BME280;10663;42.714;23.274;2023-06-04T01:50:07;94901.25;;;20.97;62.16
21011;BME280;10663;42.714;23.274;2023-06-04T01:51:40;94900.97;;;20.89;62.27
21011;BME280;10663;42.714;23.274;2023-06-04T01:53:10;94907.47;;;20.88;62.64
21011;BME280;10663;42.714;23.274;2023-06-04T01:54:41;94906.94;;;20.95;62.30
21011;BME280;10663;42.714;23.274;2023-06-04T01:56:13;94909.25;;;20.84;62.55
21011;BME280;10663;42.714;23.274;2023-06-04T01:57:46;94902.88;;;20.89;62.05
21011;BME280;10663;42.714;23.274;2023-06-04T01:59:17;94914.72;;;20.97;62.04
21011;BME280;10663;42.714;23.274;2023-06-04T02:00:49;94906.25;;;21.07;61.60
21011;BME280;10663;42.714;23.274;2023-06-04T02:02:20;94906.59;;;21.05;61.63
21011;BME280;10663;42.714;23.274;2023-06-04T02:03:51;94906.84;;;21.12;61.51
21011;BME280;10663;42.714;23.274;2023-06-04T02:05:23;94906.56;;;20.84;62.31
21011;BME280;10663;42.714;23.274;2023-06-04T02:06:54;94905.13;;;20.78;62.63
21011;BME280;10663;42.714;23.274;2023-06-04T02:08:26;94908.94;;;20.77;62.83
21011;BME280;10663;42.714;23.274;2023-06-04T02:09:58;94915.06;;;20.86;62.07
21011;BME280;10663;42.714;23.274;2023-06-04T02:11:29;94912.38;;;20.86;62.50
21011;BME280;10663;42.714;23.274;2023-06-04T02:13:01;94907.19;;;21.11;61.77
21011;BME280;10663;42.714;23.274;2023-06-04T02:14:35;94913.06;;;21.04;62.06
21011;BME280;10663;42.714;23.274;2023-06-04T02:16:07;94914.84;;;21.00;61.97
21011;BME280;10663;42.714;23.274;2023-06-04T02:17:39;94914.53;;;21.02;61.99
21011;BME280;10663;42.714;23.274;2023-06-04T02:19:13;94915.84;;;21.25;61.11
21011;BME280;10663;42.714;23.274;2023-06-04T02:20:45;94925.34;;;20.93;62.38
21011;BME280;10663;42.714;23.274;2023-06-04T02:22:17;94921.31;;;21.08;61.90
21011;BME280;10663;42.714;23.274;2023-06-04T02:23:48;94926.16;;;20.94;62.13
21011;BME280;10663;42.714;23.274;2023-06-04T02:25:19;94925.38;;;21.14;61.68
21011;BME280;10663;42.714;23.274;2023-06-04T02:26:50;94924.63;;;21.05;62.20
21011;BME280;10663;42.714;23.274;2023-06-04T02:28:21;94922.66;;;20.93;62.34
21011;BME280;10663;42.714;23.274;2023-06-04T02:29:51;94937.34;;;20.96;62.42
21011;BME280;10663;42.714;23.274;2023-06-04T02:31:22;94936.19;;;21.05;62.31
21011;BME280;10663;42.714;23.274;2023-06-04T02:32:53;94936.63;;;21.16;61.96
21011;BME280;10663;42.714;23.274;2023-06-04T02:34:25;94938.72;;;21.19;61.46
21011;BME280;10663;42.714;23.274;2023-06-04T02:35:56;94938.38;;;21.20;61.36
21011;BME280;10663;42.714;23.274;2023-06-04T02:37:27;94941.09;;;21.12;61.78
21011;BME280;10663;42.714;23.274;2023-06-04T02:38:58;94947.97;;;21.01;62.19
21011;BME280;10663;42.714;23.274;2023-06-04T02:40:29;94944.56;;;21.12;61.66
21011;BME280;10663;42.714;23.274;2023-06-04T02:42:00;94948.25;;;21.08;61.94
21011;BME280;10663;42.714;23.274;2023-06-04T02:43:31;94949.81;;;21.17;61.77
21011;BME280;10663;42.714;23.274;2023-06-04T02:45:02;94954.34;;;21.25;61.48
21011;BME280;10663;42.714;23.274;2023-06-04T02:46:33;94950.09;;;21.16;61.64
21011;BME280;10663;42.714;23.274;2023-06-04T02:48:04;94950.72;;;21.13;61.92
21011;BME280;10663;42.714;23.274;2023-06-04T02:49:35;94945.03;;;21.14;61.59
21011;BME280;10663;42.714;23.274;2023-06-04T02:51:06;94953.28;;;21.18;61.43
21011;BME280;10663;42.714;23.274;2023-06-04T02:52:40;94954.56;;;21.20;61.91
21011;BME280;10663;42.714;23.274;2023-06-04T02:54:12;94953.34;;;21.01;62.25
21011;BME280;10663;42.714;23.274;2023-06-04T02:55:43;94957.38;;;21.15;61.79
21011;BME280;10663;42.714;23.274;2023-06-04T02:57:14;94958.97;;;21.16;61.75
21011;BME280;10663;42.714;23.274;2023-06-04T02:59:04;94954.81;;;21.27;61.24
21011;BME280;10663;42.714;23.274;2023-06-04T03:00:35;94968.16;;;21.15;61.72
21011;BME280;10663;42.714;23.274;2023-06-04T03:02:06;94963.88;;;21.23;61.44
21011;BME280;10663;42.714;23.274;2023-06-04T03:03:37;94967.22;;;21.20;61.48
21011;BME280;10663;42.714;23.274;2023-06-04T03:05:10;94963.03;;;21.31;61.14
21011;BME280;10663;42.714;23.274;2023-06-04T03:06:41;94964.06;;;21.18;61.40
21011;BME280;10663;42.714;23.274;2023-06-04T03:08:15;94965.50;;;21.07;61.92
21011;BME280;10663;42.714;23.274;2023-06-04T03:09:46;94955.47;;;21.16;61.88
21011;BME280;10663;42.714;23.274;2023-06-04T03:11:18;94955.97;;;21.18;61.55
21011;BME280;10663;42.714;23.274;2023-06-04T03:12:52;94963.56;;;21.16;61.74
21011;BME280;10663;42.714;23.274;2023-06-04T03:14:23;94964.34;;;21.16;61.84
21011;BME280;10663;42.714;23.274;2023-06-04T03:15:54;94962.28;;;21.22;61.52
21011;BME280;10663;42.714;23.274;2023-06-04T03:17:26;94962.44;;;21.17;61.99
21011;BME280;10663;42.714;23.274;2023-06-04T03:18:58;94962.13;;;21.27;61.51
21011;BME280;10663;42.714;23.274;2023-06-04T03:20:29;94959.75;;;21.17;61.78
21011;BME280;10663;42.714;23.274;2023-06-04T03:22:00;94965.91;;;21.26;61.48
21011;BME280;10663;42.714;23.274;2023-06-04T03:23:33;94964.34;;;21.25;61.37
21011;BME280;10663;42.714;23.274;2023-06-04T03:25:05;94963.44;;;21.21;61.66
21011;BME280;10663;42.714;23.274;2023-06-04T03:26:36;94959.28;;;21.23;61.42
21011;BME280;10663;42.714;23.274;2023-06-04T03:28:07;94966.88;;;21.21;61.38
21011;BME280;10663;42.714;23.274;2023-06-04T03:29:38;94969.25;;;21.23;61.59
21011;BME280;10663;42.714;23.274;2023-06-04T03:31:10;94969.56;;;21.21;61.60
21011;BME280;10663;42.714;23.274;2023-06-04T03:32:41;94971.34;;;21.17;61.60
21011;BME280;10663;42.714;23.274;2023-06-04T03:34:14;94970.38;;;21.22;61.58
21011;BME280;10663;42.714;23.274;2023-06-04T03:35:45;94968.66;;;21.09;62.42
21011;BME280;10663;42.714;23.274;2023-06-04T03:37:19;94975.91;;;21.25;61.52
21011;BME280;10663;42.714;23.274;2023-06-04T03:38:50;94974.88;;;21.01;62.15
21011;BME280;10663;42.714;23.274;2023-06-04T03:40:21;94979.75;;;21.07;62.03
21011;BME280;10663;42.714;23.274;2023-06-04T03:41:53;94978.97;;;21.07;62.23
21011;BME280;10663;42.714;23.274;2023-06-04T03:43:26;94981.19;;;21.05;62.40
21011;BME280;10663;42.714;23.274;2023-06-04T03:45:01;94978.69;;;21.00;62.70
21011;BME280;10663;42.714;23.274;2023-06-04T03:46:34;94980.56;;;21.08;62.31
21011;BME280;10663;42.714;23.274;2023-06-04T03:48:06;94983.84;;;21.13;61.77
21011;BME280;10663;42.714;23.274;2023-06-04T03:49:39;94984.19;;;21.12;62.11
21011;BME280;10663;42.714;23.274;2023-06-04T03:51:11;94987.69;;;21.04;62.52
21011;BME280;10663;42.714;23.274;2023-06-04T03:52:42;94989.72;;;21.15;61.90
21011;BME280;10663;42.714;23.274;2023-06-04T03:54:14;94987.34;;;21.14;61.92
21011;BME280;10663;42.714;23.274;2023-06-04T03:55:48;94987.78;;;21.24;61.78
21011;BME280;10663;42.714;23.274;2023-06-04T03:57:18;94986.22;;;21.23;61.81
21011;BME280;10663;42.714;23.274;2023-06-04T03:58:50;94987.78;;;21.24;62.01
21011;BME280;10663;42.714;23.274;2023-06-04T04:00:21;94982.81;;;21.35;61.32
21011;BME280;10663;42.714;23.274;2023-06-04T04:01:56;94985.25;;;21.28;61.75
21011;BME280;10663;42.714;23.274;2023-06-04T04:03:27;94991.34;;;21.46;61.15
21011;BME280;10663;42.714;23.274;2023-06-04T04:05:02;94996.44;;;21.39;61.34
21011;BME280;10663;42.714;23.274;2023-06-04T04:06:33;94990.22;;;21.47;61.47
21011;BME280;10663;42.714;23.274;2023-06-04T04:08:04;94995.94;;;21.45;61.46
21011;BME280;10663;42.714;23.274;2023-06-04T04:09:38;94987.44;;;21.35;61.91
21011;BME280;10663;42.714;23.274;2023-06-04T04:11:13;94990.72;;;21.40;61.69
21011;BME280;10663;42.714;23.274;2023-06-04T04:12:44;94990.91;;;21.35;61.90
21011;BME280;10663;42.714;23.274;2023-06-04T04:14:15;94996.78;;;21.37;62.20
21011;BME280;10663;42.714;23.274;2023-06-04T04:15:46;95003.13;;;21.33;62.15
21011;BME280;10663;42.714;23.274;2023-06-04T04:17:17;95000.00;;;21.22;62.92
21011;BME280;10663;42.714;23.274;2023-06-04T04:18:48;94998.25;;;21.26;62.88
21011;BME280;10663;42.714;23.274;2023-06-04T04:20:20;95002.84;;;21.25;62.71
21011;BME280;10663;42.714;23.274;2023-06-04T04:21:56;94999.81;;;21.27;62.93
21011;BME280;10663;42.714;23.274;2023-06-04T04:23:28;94999.00;;;21.35;62.66
21011;BME280;10663;42.714;23.274;2023-06-04T04:24:59;95000.31;;;21.29;63.09
21011;BME280;10663;42.714;23.274;2023-06-04T04:26:32;95006.47;;;21.30;63.18
21011;BME280;10663;42.714;23.274;2023-06-04T04:28:04;94998.47;;;21.42;62.85
21011;BME280;10663;42.714;23.274;2023-06-04T04:29:37;95005.31;;;21.39;62.94
21011;BME280;10663;42.714;23.274;2023-06-04T04:31:09;95006.75;;;21.37;63.35
21011;BME280;10663;42.714;23.274;2023-06-04T04:32:41;95008.34;;;21.38;63.45
21011;BME280;10663;42.714;23.274;2023-06-04T04:34:21;95010.28;;;21.28;63.65
21011;BME280;10663;42.714;23.274;2023-06-04T04:35:54;95009.41;;;20.99;64.59
21011;BME280;10663;42.714;23.274;2023-06-04T04:37:27;95014.09;;;21.27;63.92
21011;BME280;10663;42.714;23.274;2023-06-04T04:39:01;95008.19;;;21.34;63.69
21011;BME280;10663;42.714;23.274;2023-06-04T04:40:37;95011.19;;;20.86;65.41
21011;BME280;10663;42.714;23.274;2023-06-04T04:42:10;95007.69;;;20.94;65.14
21011;BME280;10663;42.714;23.274;2023-06-04T04:43:41;95014.13;;;21.19;64.42
21011;BME280;10663;42.714;23.274;2023-06-04T04:45:20;95009.03;;;21.26;64.29
21011;BME280;10663;42.714;23.274;2023-06-04T04:46:53;95005.03;;;21.32;63.89
21011;BME280;10663;42.714;23.274;2023-06-04T04:48:24;95010.88;;;20.87;64.87
21011;BME280;10663;42.714;23.274;2023-06-04T04:49:55;95016.00;;;20.63;66.22
21011;BME280;10663;42.714;23.274;2023-06-04T04:51:26;95008.47;;;20.95;65.78
21011;BME280;10663;42.714;23.274;2023-06-04T04:52:58;95006.06;;;21.19;64.73
21011;BME280;10663;42.714;23.274;2023-06-04T04:54:29;95016.75;;;20.89;65.78
21011;BME280;10663;42.714;23.274;2023-06-04T04:56:00;95015.44;;;20.96;65.55
21011;BME280;10663;42.714;23.274;2023-06-04T04:57:31;95016.63;;;21.24;64.66
21011;BME280;10663;42.714;23.274;2023-06-04T04:59:03;95010.66;;;21.48;63.76
21011;BME280;10663;42.714;23.274;2023-06-04T05:00:34;95016.38;;;21.46;63.57
21011;BME280;10663;42.714;23.274;2023-06-04T05:02:06;95012.56;;;21.47;63.52
21011;BME280;10663;42.714;23.274;2023-06-04T05:03:37;95019.72;;;21.43;63.44
21011;BME280;10663;42.714;23.274;2023-06-04T05:05:08;95010.25;;;21.67;62.73
21011;BME280;10663;42.714;23.274;2023-06-04T05:06:41;95016.00;;;21.77;62.19
21011;BME280;10663;42.714;23.274;2023-06-04T05:08:12;95013.69;;;21.76;62.02
21011;BME280;10663;42.714;23.274;2023-06-04T05:09:46;95011.28;;;21.95;61.38
21011;BME280;10663;42.714;23.274;2023-06-04T05:11:17;95004.81;;;22.17;60.70
21011;BME280;10663;42.714;23.274;2023-06-04T05:12:59;95005.69;;;22.09;60.90
21011;BME280;10663;42.714;23.274;2023-06-04T05:14:38;95014.03;;;22.16;60.50
21011;BME280;10663;42.714;23.274;2023-06-04T05:16:09;95014.66;;;22.33;59.81
21011;BME280;10663;42.714;23.274;2023-06-04T05:17:43;95019.09;;;22.38;59.50
21011;BME280;10663;42.714;23.274;2023-06-04T05:19:18;95011.78;;;22.38;59.61
21011;BME280;10663;42.714;23.274;2023-06-04T05:20:49;95009.81;;;22.60;59.29
21011;BME280;10663;42.714;23.274;2023-06-04T05:22:20;95024.03;;;22.69;58.83
21011;BME280;10663;42.714;23.274;2023-06-04T05:23:51;95020.03;;;22.75;58.82
21011;BME280;10663;42.714;23.274;2023-06-04T05:25:26;95016.06;;;22.72;58.53
21011;BME280;10663;42.714;23.274;2023-06-04T05:26:59;95019.25;;;22.87;58.11
21011;BME280;10663;42.714;23.274;2023-06-04T05:28:31;95017.25;;;22.63;57.75
21011;BME280;10663;42.714;23.274;2023-06-04T05:30:06;95020.66;;;22.93;57.16
21011;BME280;10663;42.714;23.274;2023-06-04T05:31:37;95018.53;;;23.10;56.28
21011;BME280;10663;42.714;23.274;2023-06-04T05:34:49;95014.50;;;23.29;55.24
21011;BME280;10663;42.714;23.274;2023-06-04T05:36:21;95013.38;;;23.30;55.15
21011;BME280;10663;42.714;23.274;2023-06-04T05:37:57;95016.19;;;23.21;54.83
21011;BME280;10663;42.714;23.274;2023-06-04T05:39:33;95023.81;;;23.31;54.51
21011;BME280;10663;42.714;23.274;2023-06-04T05:41:10;95018.31;;;23.28;54.80
21011;BME280;10663;42.714;23.274;2023-06-04T05:42:43;95023.38;;;23.41;54.28
21011;BME280;10663;42.714;23.274;2023-06-04T05:44:14;95028.34;;;23.39;53.94
21011;BME280;10663;42.714;23.274;2023-06-04T05:45:45;95028.91;;;23.33;54.31
21011;BME280;10663;42.714;23.274;2023-06-04T05:47:17;95030.94;;;23.36;54.06
21011;BME280;10663;42.714;23.274;2023-06-04T05:48:49;95030.38;;;23.30;53.27
21011;BME280;10663;42.714;23.274;2023-06-04T05:50:22;95034.31;;;23.45;52.72
21011;BME280;10663;42.714;23.274;2023-06-04T05:51:53;95040.19;;;23.47;52.85
21011;BME280;10663;42.714;23.274;2023-06-04T05:53:25;95039.03;;;23.24;52.41
21011;BME280;10663;42.714;23.274;2023-06-04T05:54:56;95033.50;;;23.32;53.21
21011;BME280;10663;42.714;23.274;2023-06-04T05:56:27;95048.78;;;23.04;53.77
21011;BME280;10663;42.714;23.274;2023-06-04T05:58:00;95037.22;;;23.16;53.91
21011;BME280;10663;42.714;23.274;2023-06-04T05:59:32;95039.47;;;23.26;53.31
21011;BME280;10663;42.714;23.274;2023-06-04T06:01:03;95038.81;;;23.29;53.48
21011;BME280;10663;42.714;23.274;2023-06-04T06:02:34;95043.53;;;23.20;53.46
21011;BME280;10663;42.714;23.274;2023-06-04T06:04:05;95045.47;;;23.43;52.54
21011;BME280;10663;42.714;23.274;2023-06-04T06:05:36;95050.28;;;23.26;52.63
21011;BME280;10663;42.714;23.274;2023-06-04T06:07:07;95041.31;;;23.46;52.19
21011;BME280;10663;42.714;23.274;2023-06-04T06:08:38;95052.22;;;23.37;52.24
21011;BME280;10663;42.714;23.274;2023-06-04T06:10:10;95042.88;;;23.47;51.72
21011;BME280;10663;42.714;23.274;2023-06-04T06:11:42;95051.25;;;23.66;51.63
21011;BME280;10663;42.714;23.274;2023-06-04T06:13:13;95048.09;;;23.52;52.10
21011;BME280;10663;42.714;23.274;2023-06-04T06:14:44;95051.91;;;23.51;52.20
21011;BME280;10663;42.714;23.274;2023-06-04T06:16:15;95053.03;;;23.50;52.13
21011;BME280;10663;42.714;23.274;2023-06-04T06:17:47;95053.38;;;23.61;51.80
21011;BME280;10663;42.714;23.274;2023-06-04T06:19:19;95059.72;;;23.65;51.59
21011;BME280;10663;42.714;23.274;2023-06-04T06:20:51;95041.53;;;23.90;51.67
21011;BME280;10663;42.714;23.274;2023-06-04T06:22:22;95046.03;;;23.98;50.34
21011;BME280;10663;42.714;23.274;2023-06-04T06:23:54;95043.56;;;23.93;50.69
21011;BME280;10663;42.714;23.274;2023-06-04T06:25:25;95056.66;;;23.78;50.72
21011;BME280;10663;42.714;23.274;2023-06-04T06:27:03;95047.59;;;23.99;50.47
21011;BME280;10663;42.714;23.274;2023-06-04T06:28:34;95050.53;;;24.06;50.23
21011;BME280;10663;42.714;23.274;2023-06-04T06:30:08;95050.72;;;24.37;49.88
21011;BME280;10663;42.714;23.274;2023-06-04T06:31:39;95053.00;;;24.11;49.87
21011;BME280;10663;42.714;23.274;2023-06-04T06:33:11;95054.34;;;24.29;50.21
21011;BME280;10663;42.714;23.274;2023-06-04T06:34:42;95054.00;;;24.31;49.54
21011;BME280;10663;42.714;23.274;2023-06-04T06:36:13;95055.84;;;23.90;50.03
21011;BME280;10663;42.714;23.274;2023-06-04T06:37:46;95055.34;;;24.24;49.62
21011;BME280;10663;42.714;23.274;2023-06-04T06:39:17;95061.28;;;24.42;49.09
21011;BME280;10663;42.714;23.274;2023-06-04T06:40:48;95059.94;;;24.48;48.80
21011;BME280;10663;42.714;23.274;2023-06-04T06:42:19;95053.91;;;24.55;49.24
21011;BME280;10663;42.714;23.274;2023-06-04T06:43:52;95049.97;;;24.80;48.05
21011;BME280;10663;42.714;23.274;2023-06-04T06:45:24;95053.56;;;24.84;48.00
21011;BME280;10663;42.714;23.274;2023-06-04T06:46:55;95055.03;;;24.94;47.67
21011;BME280;10663;42.714;23.274;2023-06-04T06:48:26;95061.06;;;25.03;47.93
21011;BME280;10663;42.714;23.274;2023-06-04T06:49:57;95052.94;;;24.75;47.72
21011;BME280;10663;42.714;23.274;2023-06-04T06:51:28;95062.28;;;25.06;47.66
21011;BME280;10663;42.714;23.274;2023-06-04T06:52:59;95061.50;;;25.05;46.54
21011;BME280;10663;42.714;23.274;2023-06-04T06:54:30;95057.94;;;25.17;46.70
21011;BME280;10663;42.714;23.274;2023-06-04T06:56:01;95056.34;;;25.31;47.08
21011;BME280;10663;42.714;23.274;2023-06-04T06:57:33;95061.94;;;25.23;47.18
21011;BME280;10663;42.714;23.274;2023-06-04T06:59:04;95060.06;;;25.55;46.68
21011;BME280;10663;42.714;23.274;2023-06-04T07:00:35;95060.00;;;25.67;46.23
21011;BME280;10663;42.714;23.274;2023-06-04T07:02:07;95055.72;;;25.66;46.37
21011;BME280;10663;42.714;23.274;2023-06-04T07:03:38;95056.50;;;25.66;45.70
21011;BME280;10663;42.714;23.274;2023-06-04T07:05:10;95056.91;;;25.68;45.75
21011;BME280;10663;42.714;23.274;2023-06-04T07:06:41;95057.16;;;25.79;45.56
21011;BME280;10663;42.714;23.274;2023-06-04T07:08:12;95066.09;;;25.48;46.14
21011;BME280;10663;42.714;23.274;2023-06-04T07:09:43;95064.75;;;25.89;45.53
21011;BME280;10663;42.714;23.274;2023-06-04T07:11:14;95075.72;;;25.77;45.30
21011;BME280;10663;42.714;23.274;2023-06-04T07:12:47;95067.22;;;25.94;47.03
21011;BME280;10663;42.714;23.274;2023-06-04T07:14:18;95067.47;;;25.89;45.32
21011;BME280;10663;42.714;23.274;2023-06-04T07:15:49;95067.31;;;25.82;45.19
21011;BME280;10663;42.714;23.274;2023-06-04T07:17:20;95077.78;;;25.99;45.08
21011;BME280;10663;42.714;23.274;2023-06-04T07:18:51;95072.28;;;25.96;44.93
21011;BME280;10663;42.714;23.274;2023-06-04T07:20:22;95072.03;;;26.01;44.81
21011;BME280;10663;42.714;23.274;2023-06-04T07:21:54;95075.78;;;25.96;45.11
21011;BME280;10663;42.714;23.274;2023-06-04T07:23:25;95067.44;;;26.21;44.98
21011;BME280;10663;42.714;23.274;2023-06-04T07:24:56;95073.66;;;26.21;44.59
21011;BME280;10663;42.714;23.274;2023-06-04T07:26:27;95077.22;;;26.25;44.66
21011;BME280;10663;42.714;23.274;2023-06-04T07:28:01;95069.03;;;26.41;44.13
21011;BME280;10663;42.714;23.274;2023-06-04T07:29:34;95078.53;;;26.51;44.26
21011;BME280;10663;42.714;23.274;2023-06-04T07:31:05;95083.66;;;26.71;44.28
21011;BME280;10663;42.714;23.274;2023-06-04T07:32:36;95079.47;;;27.16;43.02
21011;BME280;10663;42.714;23.274;2023-06-04T07:34:07;95077.16;;;27.37;42.61
21011;BME280;10663;42.714;23.274;2023-06-04T07:35:38;95078.09;;;27.26;42.31
21011;BME280;10663;42.714;23.274;2023-06-04T07:37:09;95081.19;;;27.24;42.46
21011;BME280;10663;42.714;23.274;2023-06-04T07:38:40;95071.41;;;27.19;42.39
21011;BME280;10663;42.714;23.274;2023-06-04T07:40:11;95078.47;;;27.24;42.49
21011;BME280;10663;42.714;23.274;2023-06-04T07:41:42;95086.50;;;26.98;43.05
21011;BME280;10663;42.714;23.274;2023-06-04T07:43:13;95082.50;;;27.11;43.11
21011;BME280;10663;42.714;23.274;2023-06-04T07:44:44;95081.44;;;26.58;44.24
21011;BME280;10663;42.714;23.274;2023-06-04T07:46:15;95085.78;;;26.81;43.63
21011;BME280;10663;42.714;23.274;2023-06-04T07:47:49;95091.53;;;27.38;42.45
21011;BME280;10663;42.714;23.274;2023-06-04T07:49:20;95087.84;;;27.27;42.07
21011;BME280;10663;42.714;23.274;2023-06-04T07:50:50;95090.44;;;27.19;42.46
21011;BME280;10663;42.714;23.274;2023-06-04T07:52:29;95084.63;;;27.44;42.52
21011;BME280;10663;42.714;23.274;2023-06-04T07:54:00;95096.19;;;27.37;42.22
21011;BME280;10663;42.714;23.274;2023-06-04T07:55:31;95084.59;;;27.40;42.55
21011;BME280;10663;42.714;23.274;2023-06-04T07:57:02;95095.53;;;27.44;42.11
21011;BME280;10663;42.714;23.274;2023-06-04T07:58:33;95094.59;;;27.55;41.90
21011;BME280;10663;42.714;23.274;2023-06-04T08:00:05;95095.13;;;27.65;42.26
21011;BME280;10663;42.714;23.274;2023-06-04T08:01:43;95090.69;;;27.79;41.54
21011;BME280;10663;42.714;23.274;2023-06-04T08:03:14;95087.22;;;27.56;41.76